createdAt,value
2018-09-10T00:00:10.201Z,99.90
2018-09-10T00:02:39.332Z,99.90
2018-09-10T00:05:07.933Z,99.90
2018-09-10T00:07:36.441Z,99.90
2018-09-10T00:10:05.365Z,99.90
2018-09-10T00:12:33.892Z,99.90
2018-09-10T00:15:02.641Z,99.90
2018-09-10T00:17:31.119Z,99.90
2018-09-10T00:19:59.610Z,99.90
2018-09-10T00:22:28.108Z,99.90
2018-09-10T00:24:56.642Z,99.90
2018-09-10T00:27:25.095Z,99.90
2018-09-10T00:29:53.571Z,99.90
2018-09-10T00:32:23.043Z,99.90
2018-09-10T00:34:51.593Z,99.90
2018-09-10T00:37:20.031Z,99.90
2018-09-10T00:39:49.126Z,99.90
2018-09-10T00:42:17.739Z,99.90
2018-09-10T00:44:46.241Z,99.90
2018-09-10T00:47:16.185Z,99.90
2018-09-10T00:49:44.694Z,99.90
2018-09-10T00:52:13.809Z,99.90
2018-09-10T00:54:42.830Z,99.90
2018-09-10T00:57:11.371Z,99.90
2018-09-10T00:59:39.868Z,99.90
2018-09-10T01:02:08.931Z,99.90
2018-09-10T01:04:37.607Z,99.90
2018-09-10T01:07:06.101Z,99.90
2018-09-10T01:09:35.466Z,99.90
2018-09-10T01:12:03.977Z,99.90
2018-09-10T01:14:32.826Z,99.90
2018-09-10T01:17:01.329Z,99.90
2018-09-10T01:19:29.769Z,99.90
2018-09-10T01:21:58.221Z,99.90
2018-09-10T01:24:26.689Z,99.90
2018-09-10T01:26:55.799Z,99.90
2018-09-10T01:29:24.371Z,99.90
2018-09-10T01:31:52.894Z,99.90
2018-09-10T01:34:26.782Z,99.90
2018-09-10T01:36:55.373Z,99.90
2018-09-10T01:39:23.865Z,99.90
2018-09-10T01:41:52.323Z,99.90
2018-09-10T01:44:20.795Z,99.90
2018-09-10T01:46:49.218Z,99.90
2018-09-10T01:49:17.727Z,99.90
2018-09-10T01:51:46.866Z,99.90
2018-09-10T01:54:16.615Z,99.90
2018-09-10T01:56:45.065Z,99.90
2018-09-10T01:59:13.597Z,99.90
2018-09-10T02:01:42.135Z,99.90
2018-09-10T02:04:10.642Z,99.90
2018-09-10T02:06:39.149Z,99.90
2018-09-10T02:09:17.174Z,99.90
2018-09-10T02:11:45.702Z,99.90
2018-09-10T02:14:14.269Z,99.90
2018-09-10T02:16:42.915Z,99.90
2018-09-10T02:19:11.499Z,99.90
2018-09-10T02:21:39.977Z,99.90
2018-09-10T02:24:08.590Z,99.90
2018-09-10T02:26:37.123Z,99.90
2018-09-10T02:29:05.770Z,99.90
2018-09-10T02:31:35.011Z,99.90
2018-09-10T02:34:03.846Z,99.90
2018-09-10T02:36:32.368Z,99.90
2018-09-10T02:39:00.912Z,99.90
2018-09-10T02:41:30.311Z,99.90
2018-09-10T02:43:59.459Z,99.90
2018-09-10T02:46:27.936Z,99.90
2018-09-10T02:48:56.404Z,99.90
2018-09-10T02:51:26.173Z,99.90
2018-09-10T02:53:54.626Z,99.90
2018-09-10T02:56:24.238Z,99.90
2018-09-10T02:58:53.375Z,99.90
2018-09-10T03:01:21.892Z,99.90
2018-09-10T03:03:50.507Z,99.90
2018-09-10T03:06:19.011Z,99.90
2018-09-10T03:08:47.480Z,99.90
2018-09-10T03:11:16.078Z,99.90
2018-09-10T03:13:44.795Z,99.90
2018-09-10T03:16:13.254Z,99.90
2018-09-10T03:18:41.733Z,99.90
2018-09-10T03:21:10.544Z,99.90
2018-09-10T03:23:39.272Z,99.90
2018-09-10T03:26:08.613Z,99.90
2018-09-10T03:28:37.486Z,99.90
2018-09-10T03:31:06.017Z,99.90
2018-09-10T03:33:34.655Z,99.90
2018-09-10T03:36:04.769Z,99.90
2018-09-10T03:38:33.496Z,99.90
2018-09-10T03:41:01.999Z,99.90
2018-09-10T03:43:31.763Z,99.90
2018-09-10T03:46:00.228Z,99.90
2018-09-10T03:48:28.852Z,99.90
2018-09-10T03:50:57.376Z,99.90
2018-09-10T03:53:26.829Z,99.90
2018-09-10T03:55:57.043Z,99.90
2018-09-10T03:58:26.202Z,99.90
2018-09-10T04:00:54.749Z,99.90
2018-09-10T04:03:24.247Z,99.90
2018-09-10T04:05:52.816Z,99.90
2018-09-10T04:08:21.345Z,99.90
2018-09-10T04:10:49.927Z,99.90
2018-09-10T04:13:18.530Z,99.90
2018-09-10T04:15:46.992Z,99.90
2018-09-10T04:18:15.554Z,99.90
2018-09-10T04:20:44.037Z,99.90
2018-09-10T04:23:12.529Z,99.90
2018-09-10T04:25:41.073Z,99.90
2018-09-10T04:28:09.487Z,99.90
2018-09-10T04:30:38.538Z,99.90
2018-09-10T04:33:07.284Z,99.90
2018-09-10T04:35:35.823Z,99.90
2018-09-10T04:38:04.272Z,99.90
2018-09-10T04:40:32.778Z,99.90
2018-09-10T04:43:02.254Z,99.90
2018-09-10T04:45:31.275Z,99.90
2018-09-10T04:48:00.770Z,99.90
2018-09-10T04:50:29.237Z,99.90
2018-09-10T04:52:58.191Z,99.90
2018-09-10T04:55:26.688Z,99.90
2018-09-10T04:57:56.302Z,99.90
2018-09-10T05:00:24.773Z,99.90
2018-09-10T05:02:53.321Z,99.90
2018-09-10T05:05:21.846Z,99.90
2018-09-10T05:07:50.337Z,99.90
2018-09-10T05:10:18.877Z,99.90
2018-09-10T05:12:47.714Z,99.90
2018-09-10T05:15:16.288Z,99.90
2018-09-10T05:17:44.838Z,99.90
2018-09-10T05:20:13.397Z,99.90
2018-09-10T05:22:41.921Z,99.90
2018-09-10T05:25:10.431Z,99.90
2018-09-10T05:27:38.951Z,99.90
2018-09-10T05:30:07.453Z,99.90
2018-09-10T05:32:36.340Z,99.90
2018-09-10T05:35:04.981Z,99.90
2018-09-10T05:37:33.446Z,99.90
2018-09-10T05:40:01.993Z,99.90
2018-09-10T05:42:30.473Z,99.90
2018-09-10T05:44:58.953Z,99.90
2018-09-10T05:47:27.433Z,99.90
2018-09-10T05:49:55.885Z,99.90
2018-09-10T05:52:24.304Z,99.90
2018-09-10T05:54:52.853Z,99.90
2018-09-10T05:57:21.330Z,99.90
2018-09-10T05:59:49.845Z,99.90
2018-09-10T06:02:18.413Z,99.90
2018-09-10T06:04:46.966Z,99.90
2018-09-10T06:07:15.576Z,99.90
2018-09-10T06:09:44.817Z,99.90
2018-09-10T06:12:13.301Z,99.90
2018-09-10T06:14:41.811Z,99.90
2018-09-10T06:17:11.307Z,99.90
2018-09-10T06:19:39.994Z,99.90
2018-09-10T06:22:08.574Z,99.90
2018-09-10T06:24:38.208Z,99.90
2018-09-10T06:27:13.037Z,99.90
2018-09-10T06:29:41.779Z,99.90
2018-09-10T06:32:11.424Z,99.90
2018-09-10T06:34:40.107Z,99.90
2018-09-10T06:37:08.702Z,99.90
2018-09-10T06:39:38.653Z,99.90
2018-09-10T06:42:07.238Z,99.90
2018-09-10T06:44:35.793Z,99.90
2018-09-10T06:47:04.841Z,99.90
2018-09-10T06:49:34.448Z,99.90
2018-09-10T06:52:02.961Z,99.90
2018-09-10T06:54:32.070Z,99.90
2018-09-10T06:57:00.566Z,99.90
2018-09-10T06:59:29.120Z,99.90
2018-09-10T07:01:57.634Z,99.90
2018-09-10T07:04:26.105Z,99.90
2018-09-10T07:06:54.558Z,99.90
2018-09-10T07:09:23.114Z,99.90
2018-09-10T07:11:52.393Z,99.90
2018-09-10T07:14:20.914Z,99.90
2018-09-10T07:16:49.985Z,99.90
2018-09-10T07:19:18.508Z,99.90
2018-09-10T07:21:46.963Z,99.90
2018-09-10T07:24:15.537Z,99.90
2018-09-10T07:26:44.390Z,99.90
2018-09-10T07:29:13.445Z,99.90
2018-09-10T07:31:41.946Z,99.90
2018-09-10T07:34:11.095Z,99.90
2018-09-10T07:36:39.663Z,99.90
2018-09-10T07:39:10.215Z,99.90
2018-09-10T07:41:38.746Z,99.90
2018-09-10T07:44:07.934Z,99.90
2018-09-10T07:46:36.422Z,99.90
2018-09-10T07:49:04.908Z,99.90
2018-09-10T07:51:33.749Z,99.90
2018-09-10T07:54:02.201Z,99.90
2018-09-10T07:56:30.663Z,99.90
2018-09-10T07:58:59.763Z,99.90
2018-09-10T08:01:28.342Z,99.90
2018-09-10T08:03:56.855Z,99.90
2018-09-10T08:06:25.361Z,99.90
2018-09-10T08:08:54.350Z,99.90
2018-09-10T08:11:23.734Z,99.90
2018-09-10T08:13:52.763Z,99.90
2018-09-10T08:16:21.613Z,99.90
2018-09-10T08:18:50.124Z,99.90
2018-09-10T08:21:18.650Z,99.90
2018-09-10T08:23:47.672Z,99.90
2018-09-10T08:26:17.114Z,99.90
2018-09-10T08:28:47.159Z,99.90
2018-09-10T08:31:15.730Z,99.90
2018-09-10T08:33:44.249Z,99.90
2018-09-10T08:36:14.586Z,99.90
2018-09-10T08:38:43.194Z,99.90
2018-09-10T08:41:11.945Z,99.90
2018-09-10T08:43:40.570Z,99.90
2018-09-10T08:46:10.509Z,99.90
2018-09-10T08:48:39.028Z,99.90
2018-09-10T08:51:07.703Z,99.90
2018-09-10T08:53:36.248Z,99.90
2018-09-10T08:56:05.575Z,99.90
2018-09-10T08:58:33.943Z,99.90
2018-09-10T09:01:02.496Z,99.90
2018-09-10T09:03:31.841Z,99.90
2018-09-10T09:06:00.371Z,99.90
2018-09-10T09:08:28.829Z,99.90
2018-09-10T09:10:57.329Z,99.90
2018-09-10T09:13:25.939Z,99.90
2018-09-10T09:15:54.427Z,99.90
2018-09-10T09:18:22.870Z,99.90
2018-09-10T09:20:52.099Z,99.90
2018-09-10T09:23:21.564Z,99.90
2018-09-10T09:25:50.307Z,99.90
2018-09-10T09:28:18.944Z,99.90
2018-09-10T09:30:47.578Z,99.90
2018-09-10T09:33:16.106Z,99.90
2018-09-10T09:35:50.792Z,99.90
2018-09-10T09:38:24.994Z,99.90
2018-09-10T09:40:59.110Z,99.90
2018-09-10T09:43:33.089Z,99.90
2018-09-10T09:46:04.610Z,99.90
2018-09-10T09:48:34.295Z,99.90
2018-09-10T09:51:02.937Z,99.90
2018-09-10T09:53:31.766Z,99.90
2018-09-10T09:56:00.244Z,99.90
2018-09-10T09:58:28.854Z,99.90
2018-09-10T10:01:03.543Z,99.90
2018-09-10T10:03:38.182Z,99.90
2018-09-10T10:06:06.724Z,99.90
2018-09-10T10:08:35.496Z,99.90
2018-09-10T10:11:05.145Z,99.90
2018-09-10T10:13:34.858Z,99.90
2018-09-10T10:16:04.340Z,99.90
2018-09-10T10:18:33.644Z,99.90
2018-09-10T10:21:02.085Z,99.90
2018-09-10T10:23:31.188Z,99.90
2018-09-10T10:25:59.698Z,99.90
2018-09-10T10:28:28.231Z,99.90
2018-09-10T10:30:56.750Z,99.90
2018-09-10T10:33:25.252Z,99.90
2018-09-10T10:35:54.761Z,99.90
2018-09-10T10:38:23.329Z,99.90
2018-09-10T10:40:51.956Z,99.90
2018-09-10T10:43:20.441Z,99.90
2018-09-10T10:45:48.958Z,99.90
2018-09-10T10:48:18.590Z,99.90
2018-09-10T10:50:47.615Z,99.90
2018-09-10T10:53:16.761Z,99.90
2018-09-10T10:55:46.063Z,99.90
2018-09-10T10:58:15.603Z,99.90
2018-09-10T11:00:44.373Z,99.90
2018-09-10T11:03:13.093Z,99.90
2018-09-10T11:05:41.643Z,99.50
2018-09-10T11:08:10.641Z,99.70
2018-09-10T11:10:39.152Z,99.40
2018-09-10T11:13:08.254Z,98.80
2018-09-10T11:15:36.842Z,99.00
2018-09-10T11:18:10.090Z,98.10
2018-09-10T11:20:38.768Z,98.50
2018-09-10T11:23:07.296Z,96.40
2018-09-10T11:25:35.837Z,95.90
2018-09-10T11:28:04.580Z,95.80
2018-09-10T11:30:33.144Z,95.30
2018-09-10T11:33:02.037Z,92.80
2018-09-10T11:35:30.823Z,92.90
2018-09-10T11:37:59.719Z,91.10
2018-09-10T11:40:28.482Z,90.60
2018-09-10T11:42:57.059Z,90.60
2018-09-10T11:45:25.518Z,90.10
2018-09-10T11:47:54.118Z,91.60
2018-09-10T11:50:23.707Z,88.50
2018-09-10T11:52:52.342Z,86.70
2018-09-10T11:55:21.055Z,83.10
2018-09-10T11:57:49.576Z,83.00
2018-09-10T12:00:18.817Z,84.40
2018-09-10T12:02:48.150Z,84.50
2018-09-10T12:05:17.462Z,81.80
2018-09-10T12:07:46.069Z,80.20
2018-09-10T12:10:14.574Z,80.30
2018-09-10T12:12:43.210Z,77.80
2018-09-10T12:15:11.733Z,78.20
2018-09-10T12:17:41.005Z,77.60
2018-09-10T12:20:10.002Z,75.20
2018-09-10T12:22:38.774Z,77.60
2018-09-10T12:25:07.377Z,75.90
2018-09-10T12:27:35.932Z,72.30
2018-09-10T12:30:05.417Z,74.00
2018-09-10T12:32:34.184Z,71.90
2018-09-10T12:35:02.701Z,70.60
2018-09-10T12:37:31.256Z,65.60
2018-09-10T12:40:00.081Z,67.80
2018-09-10T12:42:28.580Z,66.00
2018-09-10T12:44:57.174Z,66.10
2018-09-10T12:47:25.707Z,65.60
2018-09-10T12:49:54.237Z,66.60
2018-09-10T12:52:23.108Z,67.00
2018-09-10T12:54:51.631Z,65.80
2018-09-10T12:57:20.121Z,63.80
2018-09-10T12:59:49.215Z,64.50
2018-09-10T13:02:17.750Z,65.50
2018-09-10T13:04:46.244Z,65.30
2018-09-10T13:07:14.723Z,64.30
2018-09-10T13:09:43.820Z,63.10
2018-09-10T13:12:12.406Z,63.40
2018-09-10T13:14:41.094Z,63.10
2018-09-10T13:17:10.642Z,61.80
2018-09-10T13:19:39.154Z,62.60
2018-09-10T13:22:07.603Z,62.10
2018-09-10T13:24:36.081Z,61.90
2018-09-10T13:27:07.849Z,63.10
2018-09-10T13:29:36.386Z,61.80
2018-09-10T13:32:04.969Z,61.60
2018-09-10T13:34:33.468Z,62.10
2018-09-10T13:37:02.092Z,60.90
2018-09-10T13:39:30.693Z,59.70
2018-09-10T13:41:59.228Z,58.90
2018-09-10T13:44:27.742Z,59.00
2018-09-10T13:46:56.246Z,58.50
2018-09-10T13:49:24.858Z,58.40
2018-09-10T13:51:53.519Z,55.90
2018-09-10T13:54:22.419Z,55.50
2018-09-10T13:56:51.273Z,56.90
2018-09-10T13:59:20.145Z,56.50
2018-09-10T14:01:49.625Z,55.30
2018-09-10T14:04:18.110Z,57.10
2018-09-10T14:06:46.612Z,56.50
2018-09-10T14:09:15.389Z,57.60
2018-09-10T14:11:44.770Z,57.70
2018-09-10T14:14:13.306Z,57.80
2018-09-10T14:16:41.943Z,57.80
2018-09-10T14:19:10.474Z,56.00
2018-09-10T14:21:39.904Z,57.20
2018-09-10T14:24:08.434Z,55.70
2018-09-10T14:26:36.953Z,56.30
2018-09-10T14:29:05.486Z,56.90
2018-09-10T14:31:34.250Z,56.20
2018-09-10T14:34:02.969Z,56.80
2018-09-10T14:36:31.473Z,56.90
2018-09-10T14:39:01.581Z,58.10
2018-09-10T14:41:30.063Z,58.30
2018-09-10T14:43:59.812Z,57.40
2018-09-10T14:46:28.268Z,57.80
2018-09-10T14:48:57.374Z,57.30
2018-09-10T14:51:25.927Z,57.70
2018-09-10T14:53:54.613Z,58.50
2018-09-10T14:56:23.118Z,58.60
2018-09-10T14:58:52.579Z,58.30
2018-09-10T15:01:21.066Z,58.50
2018-09-10T15:03:50.458Z,59.70
2018-09-10T15:06:18.894Z,58.40
2018-09-10T15:08:47.375Z,59.80
2018-09-10T15:11:16.855Z,58.90
2018-09-10T15:13:45.460Z,59.00
2018-09-10T15:16:14.124Z,57.80
2018-09-10T15:18:43.460Z,59.80
2018-09-10T15:21:12.038Z,59.60
2018-09-10T15:23:40.747Z,59.20
2018-09-10T15:26:09.410Z,59.10
2018-09-10T15:28:37.960Z,60.10
2018-09-10T15:31:06.745Z,59.40
2018-09-10T15:33:35.917Z,60.60
2018-09-10T15:36:14.254Z,61.80
2018-09-10T15:38:42.890Z,62.60
2018-09-10T15:41:11.436Z,61.10
2018-09-10T15:43:40.344Z,61.80
2018-09-10T15:46:09.244Z,62.90
2018-09-10T15:48:37.796Z,61.90
2018-09-10T15:51:06.497Z,62.80
2018-09-10T15:53:35.564Z,63.40
2018-09-10T15:56:04.680Z,62.90
2018-09-10T15:58:33.339Z,63.70
2018-09-10T16:01:02.070Z,64.90
2018-09-10T16:03:31.164Z,63.90
2018-09-10T16:05:59.757Z,63.90
2018-09-10T16:08:28.759Z,64.30
2018-09-10T16:10:57.291Z,65.90
2018-09-10T16:13:26.809Z,65.30
2018-09-10T16:15:55.387Z,65.30
2018-09-10T16:18:23.861Z,64.20
2018-09-10T16:20:52.728Z,64.10
2018-09-10T16:23:21.264Z,63.90
2018-09-10T16:25:49.787Z,65.40
2018-09-10T16:28:18.346Z,66.50
2018-09-10T16:30:46.865Z,67.70
2018-09-10T16:33:16.135Z,66.50
2018-09-10T16:35:44.678Z,65.80
2018-09-10T16:38:13.418Z,66.40
2018-09-10T16:40:41.966Z,65.80
2018-09-10T16:43:10.991Z,66.10
2018-09-10T16:45:40.399Z,67.40
2018-09-10T16:48:09.164Z,66.40
2018-09-10T16:50:39.484Z,66.50
2018-09-10T16:53:08.055Z,66.60
2018-09-10T16:55:36.643Z,67.00
2018-09-10T16:58:05.149Z,66.40
2018-09-10T17:00:34.003Z,67.40
2018-09-10T17:03:02.570Z,67.70
2018-09-10T17:05:31.071Z,68.10
2018-09-10T17:08:01.183Z,67.30
2018-09-10T17:10:30.104Z,69.00
2018-09-10T17:12:59.099Z,69.30
2018-09-10T17:15:27.695Z,70.20
2018-09-10T17:17:56.279Z,69.70
2018-09-10T17:20:24.831Z,70.90
2018-09-10T17:22:53.401Z,70.60
2018-09-10T17:25:21.923Z,72.40
2018-09-10T17:27:51.041Z,72.50
2018-09-10T17:30:21.008Z,75.00
2018-09-10T17:32:49.797Z,74.20
2018-09-10T17:35:19.712Z,74.60
2018-09-10T17:37:48.237Z,74.90
2018-09-10T17:40:17.309Z,74.70
2018-09-10T17:42:46.614Z,75.80
2018-09-10T17:45:15.233Z,76.60
2018-09-10T17:47:44.062Z,77.10
2018-09-10T17:50:12.816Z,76.80
2018-09-10T17:52:41.477Z,77.80
2018-09-10T17:55:11.825Z,78.30
2018-09-10T17:57:40.383Z,78.60
2018-09-10T18:00:13.631Z,79.60
2018-09-10T18:02:42.352Z,79.80
2018-09-10T18:05:10.862Z,81.00
2018-09-10T18:07:39.402Z,81.80
2018-09-10T18:10:07.946Z,83.40
2018-09-10T18:12:36.455Z,84.60
2018-09-10T18:15:05.333Z,84.50
2018-09-10T18:17:33.885Z,86.00
2018-09-10T18:20:02.500Z,86.90
2018-09-10T18:22:31.077Z,88.60
2018-09-10T18:25:00.330Z,90.00
2018-09-10T18:27:28.881Z,90.60
2018-09-10T18:29:57.324Z,91.20
2018-09-10T18:32:25.969Z,91.90
2018-09-10T18:34:55.410Z,92.50
2018-09-10T18:37:25.517Z,93.20
2018-09-10T18:39:54.097Z,93.90
2018-09-10T18:42:22.558Z,94.50
2018-09-10T18:44:51.080Z,95.30
2018-09-10T18:47:19.719Z,96.00
2018-09-10T18:49:48.596Z,96.80
2018-09-10T18:52:18.409Z,97.90
2018-09-10T18:54:46.939Z,98.00
2018-09-10T18:57:16.084Z,98.70
2018-09-10T18:59:44.549Z,99.00
2018-09-10T19:02:13.475Z,99.80
2018-09-10T19:04:43.218Z,99.90
2018-09-10T19:07:12.095Z,99.90
2018-09-10T19:09:40.742Z,99.90
2018-09-10T19:12:09.285Z,99.90
2018-09-10T19:14:37.779Z,99.90
2018-09-10T19:17:06.613Z,99.90
2018-09-10T19:19:35.263Z,99.90
2018-09-10T19:22:03.771Z,99.90
2018-09-10T19:24:32.651Z,99.90
2018-09-10T19:27:02.423Z,99.90
2018-09-10T19:29:30.955Z,99.90
2018-09-10T19:32:00.159Z,99.90
2018-09-10T19:34:28.730Z,99.90
2018-09-10T19:36:57.241Z,99.90
2018-09-10T19:39:25.779Z,99.90
2018-09-10T19:41:54.510Z,99.90
2018-09-10T19:44:23.037Z,99.90
2018-09-10T19:46:52.667Z,99.90
2018-09-10T19:49:21.155Z,99.90
2018-09-10T19:51:49.692Z,99.90
2018-09-10T19:54:18.893Z,99.90
2018-09-10T19:56:48.451Z,99.90
2018-09-10T19:59:17.874Z,99.90
2018-09-10T20:01:46.404Z,99.90
2018-09-10T20:04:14.944Z,99.90
2018-09-10T20:06:43.463Z,99.90
2018-09-10T20:09:13.989Z,99.90
2018-09-10T20:11:42.504Z,99.90
2018-09-10T20:14:10.993Z,99.90
2018-09-10T20:16:40.186Z,99.90
2018-09-10T20:19:08.755Z,99.90
2018-09-10T20:21:37.693Z,99.90
2018-09-10T20:24:06.940Z,99.90
2018-09-10T20:26:35.623Z,99.90
2018-09-10T20:29:04.213Z,99.90
2018-09-10T20:31:32.869Z,99.90
2018-09-10T20:34:07.744Z,99.90
2018-09-10T20:36:37.490Z,99.90
2018-09-10T20:39:12.370Z,99.90
2018-09-10T20:41:40.890Z,99.90
2018-09-10T20:44:09.670Z,99.90
2018-09-10T20:46:38.439Z,99.90
2018-09-10T20:49:06.989Z,99.90
2018-09-10T20:51:35.498Z,99.90
2018-09-10T20:54:06.714Z,99.90
2018-09-10T20:56:35.258Z,99.90
2018-09-10T20:59:04.611Z,99.90
2018-09-10T21:01:33.051Z,99.90
2018-09-10T21:04:01.552Z,99.90
2018-09-10T21:06:30.106Z,99.90
2018-09-10T21:08:59.355Z,99.90
2018-09-10T21:11:27.856Z,99.90
2018-09-10T21:13:56.356Z,99.90
2018-09-10T21:16:24.809Z,99.90
2018-09-10T21:18:53.241Z,99.90
2018-09-10T21:21:22.078Z,99.90
2018-09-10T21:23:50.589Z,99.90
2018-09-10T21:26:19.116Z,99.90
2018-09-10T21:28:47.598Z,99.90
2018-09-10T21:31:17.174Z,99.90
2018-09-10T21:33:45.703Z,99.90
2018-09-10T21:36:15.507Z,99.90
2018-09-10T21:38:44.102Z,99.90
2018-09-10T21:41:12.620Z,99.90
2018-09-10T21:43:41.103Z,99.90
2018-09-10T21:46:09.617Z,99.90
2018-09-10T21:48:38.038Z,99.90
2018-09-10T21:51:06.565Z,99.90
2018-09-10T21:53:36.098Z,99.90
2018-09-10T21:56:04.565Z,99.90
2018-09-10T21:58:34.089Z,99.90
2018-09-10T22:01:02.563Z,99.90
2018-09-10T22:03:31.365Z,99.90
2018-09-10T22:05:59.857Z,99.90
2018-09-10T22:08:28.306Z,99.90
2018-09-10T22:10:56.846Z,99.90
2018-09-10T22:13:25.351Z,99.90
2018-09-10T22:15:53.810Z,99.90
2018-09-10T22:18:22.399Z,99.90
2018-09-10T22:20:50.863Z,99.90
2018-09-10T22:23:19.362Z,99.90
2018-09-10T22:25:47.839Z,99.90
2018-09-10T22:28:16.301Z,99.90
2018-09-10T22:30:44.786Z,99.90
2018-09-10T22:33:14.135Z,99.90
2018-09-10T22:35:42.549Z,99.90
2018-09-10T22:38:11.023Z,99.90
2018-09-10T22:40:39.562Z,99.90
2018-09-10T22:43:08.046Z,99.90
2018-09-10T22:45:37.619Z,99.90
2018-09-10T22:48:06.140Z,99.90
2018-09-10T22:50:34.655Z,99.90
2018-09-10T22:53:03.533Z,99.90
2018-09-10T22:55:31.979Z,99.90
2018-09-10T22:58:00.470Z,99.90
2018-09-10T23:00:28.938Z,99.90
2018-09-10T23:02:57.417Z,99.90
2018-09-10T23:05:25.900Z,99.90
2018-09-10T23:07:55.072Z,99.90
2018-09-10T23:10:23.485Z,99.90
2018-09-10T23:12:52.044Z,99.90
2018-09-10T23:15:20.521Z,99.90
2018-09-10T23:17:49.223Z,99.90
2018-09-10T23:20:17.732Z,99.90
2018-09-10T23:22:46.675Z,99.90
2018-09-10T23:25:15.187Z,99.90
2018-09-10T23:27:43.681Z,99.90
2018-09-10T23:30:12.186Z,99.90
2018-09-10T23:32:42.650Z,99.90
2018-09-10T23:35:11.496Z,99.90
2018-09-10T23:37:39.959Z,99.90
2018-09-10T23:40:08.520Z,99.90
2018-09-10T23:42:37.074Z,99.90
2018-09-10T23:45:12.214Z,99.90
2018-09-10T23:47:41.495Z,99.90
2018-09-10T23:50:10.159Z,99.90
2018-09-10T23:52:38.719Z,99.90
2018-09-10T23:55:07.343Z,99.90
2018-09-10T23:57:36.487Z,99.90
